This is the latest recevied weather packets stored in our database for station/object EA5CLU-13. If no packets are shown the sender has not sent any weather packets the latest 1 day(s).
| Time | Temp. | Humidity | Pressure | Rain* | Wind** | Luminosity | Snow |
|---|---|---|---|---|---|---|---|
| 1778003527 | 18.89° C | 65% | 1012.5 hPa | 0 mm | - | - | - |
| 1778001728 | 19.44° C | 60% | 1012.5 hPa | 0 mm | - | - | - |
| 1777999928 | 20° C | 57% | 1012.3 hPa | 0 mm | - | - | - |
| 1777999651 | 20° C | 58% | 1012.2 hPa | 0 mm | - | - | - |
| 1777998170 | 20° C | 59% | 1012.2 hPa | 0 mm | - | - | - |
| 1777997219 | 20.56° C | 57% | 1012.1 hPa | 0 mm | - | - | - |
| 1777995419 | 21.11° C | 56% | 1012 hPa | 0 mm | - | - | - |
| 1777993620 | 23.89° C | 33% | 1012.1 hPa | 0 mm | - | - | - |
| 1777992874 | 22.78° C | 34% | 1012.1 hPa | 0 mm | - | - | - |
| 1777991073 | 21.11° C | 51% | 1012.7 hPa | 0 mm | - | - | - |
| 1777989273 | 20.56° C | 50% | 1013.1 hPa | 0 mm | - | - | - |
| 1777987472 | 20° C | 57% | 1013.6 hPa | 0 mm | - | - | - |
| 1777985673 | 21.11° C | 51% | 1013.6 hPa | 0 mm | - | - | - |
| 1777983873 | 22.22° C | 37% | 1013.8 hPa | 0 mm | - | - | - |
| 1777982072 | 21.67° C | 39% | 1014 hPa | 0 mm | - | - | - |
| 1777980273 | 21.67° C | 38% | 1014.4 hPa | 0 mm | - | - | - |
| 1777978473 | 21.11° C | 39% | 1014.8 hPa | 0 mm | - | - | - |
| 1777976674 | 21.11° C | 39% | 1014.8 hPa | 0 mm | - | - | - |
| 1777974873 | 20.56° C | 43% | 1015 hPa | 0 mm | - | - | - |
| 1777973072 | 19.44° C | 49% | 1015.3 hPa | 0 mm | - | - | - |
| 1777971273 | 17.78° C | 51% | 1015.4 hPa | 0 mm | - | - | - |
| 1777969472 | 16.67° C | 60% | 1015.6 hPa | 0 mm | - | - | - |
| 1777967672 | 15° C | 67% | 1016 hPa | 0 mm | - | - | - |
| 1777965872 | 14.44° C | 69% | 1015.7 hPa | 0 mm | - | - | - |
| 1777964072 | 13.33° C | 77% | 1015.9 hPa | 0 mm | - | - | - |
* Rain latest hour (hover to see other rain measurements)
** Current wind speed in m/s (hover to see current wind gust speed)